This is the latest recevied weather packets stored in our database for station/object DN9EM-1. If no packets are shown the sender has not sent any weather packets the latest 10 day(s).
| Time | Temp. | Humidity | Pressure | Rain* | Wind** | Luminosity | Snow |
|---|---|---|---|---|---|---|---|
| 1777811758 | 24.44° C | 54% | 1011.7 hPa | 0 mm | - | - | - |
| 1777811156 | 25° C | 54% | 1011.8 hPa | 0 mm | - | - | - |
| 1777810553 | 24.44° C | 54% | 1011.9 hPa | 0 mm | - | - | - |
| 1777809950 | 23.89° C | 54% | 1012 hPa | 0 mm | - | - | - |
| 1777809348 | 24.44° C | 54% | 1012.1 hPa | 0 mm | - | - | - |
| 1777808745 | 24.44° C | 53% | 1012.1 hPa | 0 mm | - | - | - |
| 1777808143 | 25° C | 53% | 1012.3 hPa | 0 mm | - | - | - |
| 1777807540 | 24.44° C | 53% | 1012.4 hPa | 0 mm | - | - | - |
| 1777806938 | 23.89° C | 54% | 1012.5 hPa | 0 mm | - | - | - |
| 1777806335 | 24.44° C | 51% | 1012.7 hPa | 0 mm | - | - | - |
| 1777805733 | 23.33° C | 55% | 1012.8 hPa | 0 mm | - | - | - |
| 1777805130 | 23.89° C | 53% | 1012.7 hPa | 0 mm | - | - | - |
| 1777804527 | 23.33° C | 56% | 1012.9 hPa | 0 mm | - | - | - |
| 1777803924 | 23.33° C | 55% | 1013 hPa | 0 mm | - | - | - |
| 1777803322 | 22.78° C | 58% | 1013 hPa | 0 mm | - | - | - |
| 1777802720 | 22.78° C | 59% | 1013.2 hPa | 0 mm | - | - | - |
| 1777802117 | 22.78° C | 59% | 1013.2 hPa | 0 mm | - | - | - |
| 1777801575 | 22.22° C | 61% | 1013.3 hPa | 0 mm | - | - | - |
| 1777800972 | 21.11° C | 65% | 1013.5 hPa | 0 mm | - | - | - |
| 1777800369 | 20.56° C | 65% | 1013.6 hPa | 0 mm | - | - | - |
| 1777799767 | 20° C | 69% | 1013.6 hPa | 0 mm | - | - | - |
| 1777799164 | 19.44° C | 71% | 1013.7 hPa | 0 mm | - | - | - |
| 1777798562 | 19.44° C | 72% | 1013.6 hPa | 0 mm | - | - | - |
| 1777797959 | 18.33° C | 77% | 1013.8 hPa | 0 mm | - | - | - |
| 1777797357 | 18.33° C | 77% | 1013.8 hPa | 0 mm | - | - | - |
* Rain latest hour (hover to see other rain measurements)
** Current wind speed in m/s (hover to see current wind gust speed)